createdAt,value
2023-05-16T00:00:16.387Z,0.50
2023-05-16T00:01:16.390Z,0.51
2023-05-16T00:02:16.594Z,0.54
2023-05-16T00:03:16.492Z,0.52
2023-05-16T00:04:16.385Z,0.52
2023-05-16T00:05:16.419Z,0.53
2023-05-16T00:06:16.319Z,0.52
2023-05-16T00:07:16.330Z,0.52
2023-05-16T00:08:16.321Z,0.50
2023-05-16T00:09:16.327Z,0.50
2023-05-16T00:10:16.328Z,0.51
2023-05-16T00:11:16.348Z,0.51
2023-05-16T00:12:16.352Z,0.53
2023-05-16T00:13:16.332Z,0.52
2023-05-16T00:14:16.430Z,0.54
2023-05-16T00:15:16.407Z,0.54
2023-05-16T00:16:16.520Z,0.55
2023-05-16T00:17:16.539Z,0.57
2023-05-16T00:18:16.497Z,0.54
2023-05-16T00:19:16.551Z,0.52
2023-05-16T00:20:16.615Z,0.51
2023-05-16T00:21:16.537Z,0.50
2023-05-16T00:22:16.635Z,0.50
2023-05-16T00:23:16.630Z,0.52
2023-05-16T00:24:16.653Z,0.51
2023-05-16T00:25:16.651Z,0.51
2023-05-16T00:26:16.690Z,0.52
2023-05-16T00:27:16.860Z,0.52
2023-05-16T00:28:16.829Z,0.51
2023-05-16T00:29:16.786Z,0.51
2023-05-16T00:30:16.878Z,0.55
2023-05-16T00:31:16.940Z,0.57
2023-05-16T00:32:17.104Z,0.58
2023-05-16T00:33:17.048Z,0.63
2023-05-16T00:34:17.137Z,0.66
2023-05-16T00:35:17.041Z,0.64
2023-05-16T00:36:17.138Z,0.62
2023-05-16T00:37:17.134Z,0.60
2023-05-16T00:38:17.162Z,0.60
2023-05-16T00:39:17.197Z,0.61
2023-05-16T00:40:17.192Z,0.58
2023-05-16T00:41:17.193Z,0.62
2023-05-16T00:42:17.200Z,0.64
2023-05-16T00:43:17.285Z,0.68
2023-05-16T00:44:17.290Z,0.70
2023-05-16T00:45:17.418Z,0.72
2023-05-16T00:46:17.406Z,0.75
2023-05-16T00:47:17.347Z,0.75
2023-05-16T00:48:17.440Z,0.81
2023-05-16T00:49:17.462Z,0.87
2023-05-16T00:50:17.534Z,0.88
2023-05-16T00:51:17.551Z,0.76
2023-05-16T00:52:17.567Z,0.76
2023-05-16T00:53:17.662Z,0.77
2023-05-16T00:54:17.758Z,0.76
2023-05-16T00:55:17.725Z,0.79
2023-05-16T00:56:17.802Z,0.73
2023-05-16T00:57:17.791Z,0.61
2023-05-16T00:58:17.914Z,0.61
2023-05-16T00:59:17.849Z,0.63
2023-05-16T01:00:18.219Z,0.63
2023-05-16T01:01:17.931Z,0.66
2023-05-16T01:02:18.766Z,0.65
2023-05-16T01:03:18.149Z,0.66
2023-05-16T01:04:18.057Z,0.65
2023-05-16T01:05:18.155Z,0.67
2023-05-16T01:06:19.157Z,0.67
2023-05-16T01:07:18.204Z,0.72
2023-05-16T01:08:18.278Z,0.75
2023-05-16T01:09:18.273Z,0.76
2023-05-16T01:10:18.395Z,0.70
2023-05-16T01:11:18.405Z,0.71
2023-05-16T01:12:18.517Z,0.70
2023-05-16T01:13:18.437Z,0.60
2023-05-16T01:14:18.448Z,0.64
2023-05-16T01:15:18.544Z,0.64
2023-05-16T01:16:18.554Z,0.68
2023-05-16T01:17:18.555Z,0.66
2023-05-16T01:18:18.635Z,0.72
2023-05-16T01:19:18.704Z,0.72
2023-05-16T01:20:18.760Z,0.78
2023-05-16T01:21:18.712Z,0.84
2023-05-16T01:22:18.760Z,0.88
2023-05-16T01:23:18.758Z,0.93
2023-05-16T01:24:18.797Z,0.96
2023-05-16T01:25:18.784Z,0.95
2023-05-16T01:26:18.793Z,0.95
2023-05-16T01:27:19.134Z,0.92
2023-05-16T01:28:19.018Z,0.85
2023-05-16T01:29:18.938Z,0.78
2023-05-16T01:30:19.022Z,0.76
2023-05-16T01:31:19.102Z,0.54
2023-05-16T01:32:19.101Z,0.50
2023-05-16T01:33:19.151Z,0.50
2023-05-16T01:34:19.178Z,0.50
2023-05-16T01:35:19.282Z,0.50
2023-05-16T01:36:19.221Z,0.52
2023-05-16T01:37:19.220Z,0.50
2023-05-16T01:38:19.303Z,0.52
2023-05-16T01:39:19.304Z,0.56
2023-05-16T01:40:19.328Z,0.57
2023-05-16T01:41:19.361Z,0.50
2023-05-16T01:42:19.358Z,0.52
2023-05-16T01:43:19.441Z,0.55
2023-05-16T01:44:19.368Z,0.50
2023-05-16T01:45:19.443Z,0.50
2023-05-16T01:46:19.510Z,0.51
2023-05-16T01:47:19.732Z,0.50
2023-05-16T01:51:52.221Z,0.50
2023-05-16T01:52:51.992Z,0.50
2023-05-16T01:53:51.998Z,0.50
2023-05-16T01:56:11.982Z,0.50
2023-05-16T01:57:12.430Z,0.50
2023-05-16T01:58:11.449Z,0.50
2023-05-16T01:59:11.703Z,0.50
2023-05-16T02:00:12.828Z,0.50
2023-05-16T02:02:31.299Z,0.50
2023-05-16T02:03:31.912Z,0.50
2023-05-16T02:05:50.745Z,0.50
2023-05-16T02:06:51.968Z,0.50
2023-05-16T02:09:10.858Z,0.50
2023-05-16T02:10:10.810Z,0.50
2023-05-16T02:11:10.799Z,0.50
2023-05-16T02:12:10.764Z,0.50
2023-05-16T02:13:10.762Z,0.50
2023-05-16T02:14:10.858Z,0.50
2023-05-16T02:15:10.775Z,0.51
2023-05-16T02:16:10.757Z,0.55
2023-05-16T02:17:11.505Z,0.56
2023-05-16T02:18:10.808Z,0.58
2023-05-16T02:19:10.804Z,0.60
2023-05-16T02:20:10.699Z,0.63
2023-05-16T02:21:10.778Z,0.61
2023-05-16T02:22:13.637Z,0.61
2023-05-16T02:23:10.665Z,0.61
2023-05-16T02:24:10.720Z,0.60
2023-05-16T02:25:10.716Z,0.57
2023-05-16T02:26:10.698Z,0.55
2023-05-16T02:27:10.640Z,0.55
2023-05-16T02:28:10.666Z,0.59
2023-05-16T02:29:11.129Z,0.63
2023-05-16T02:30:10.635Z,0.70
2023-05-16T02:31:10.740Z,0.71
2023-05-16T02:32:10.646Z,0.64
2023-05-16T02:33:10.667Z,0.61
2023-05-16T02:34:10.665Z,0.56
2023-05-16T02:35:10.592Z,0.59
2023-05-16T02:36:10.608Z,0.60
2023-05-16T02:37:13.083Z,0.61
2023-05-16T02:38:10.587Z,0.57
2023-05-16T02:39:10.617Z,0.55
2023-05-16T02:40:10.617Z,0.50
2023-05-16T02:41:10.632Z,0.53
2023-05-16T02:42:10.610Z,0.57
2023-05-16T02:43:10.549Z,0.62
2023-05-16T02:44:10.557Z,0.68
2023-05-16T02:45:10.545Z,0.73
2023-05-16T02:46:10.606Z,0.78
2023-05-16T02:47:10.598Z,0.77
2023-05-16T02:49:30.143Z,0.50
2023-05-16T02:53:54.049Z,0.50
2023-05-16T02:56:37.499Z,0.50
2023-05-16T02:59:49.764Z,0.50
2023-05-16T03:00:45.327Z,0.50
2023-05-16T03:01:37.312Z,0.50
2023-05-16T03:02:37.359Z,0.50
2023-05-16T03:03:37.522Z,0.50
2023-05-16T03:04:37.316Z,0.50
2023-05-16T03:05:37.586Z,0.50
2023-05-16T03:06:37.330Z,0.50
2023-05-16T03:07:37.284Z,0.50
2023-05-16T03:08:37.305Z,0.50
2023-05-16T03:09:37.239Z,0.50
2023-05-16T03:10:37.241Z,0.50
2023-05-16T03:11:37.568Z,0.51
2023-05-16T03:12:37.286Z,0.51
2023-05-16T03:13:37.341Z,0.54
2023-05-16T03:14:37.548Z,0.54
2023-05-16T03:15:37.385Z,0.56
2023-05-16T03:16:37.563Z,0.58
2023-05-16T03:17:37.530Z,0.59
2023-05-16T03:18:37.523Z,0.57
2023-05-16T03:19:37.590Z,0.55
2023-05-16T03:20:37.700Z,0.54
2023-05-16T03:21:37.723Z,0.50
2023-05-16T03:22:37.796Z,0.51
2023-05-16T03:23:37.801Z,0.53
2023-05-16T03:24:37.987Z,0.53
2023-05-16T03:25:37.921Z,0.51
2023-05-16T03:26:37.941Z,0.52
2023-05-16T03:27:37.907Z,0.52
2023-05-16T03:28:37.971Z,0.53
2023-05-16T03:29:37.948Z,0.56
2023-05-16T03:30:37.961Z,0.57
2023-05-16T03:31:38.039Z,0.57
2023-05-16T03:32:38.048Z,0.55
2023-05-16T03:33:38.401Z,0.56
2023-05-16T03:34:37.973Z,0.57
2023-05-16T03:35:38.035Z,0.58
2023-05-16T03:36:37.997Z,0.59
2023-05-16T03:37:37.952Z,0.62
2023-05-16T03:38:38.004Z,0.63
2023-05-16T03:39:38.017Z,0.61
2023-05-16T03:40:38.046Z,0.63
2023-05-16T03:41:38.049Z,0.64
2023-05-16T03:42:38.055Z,0.61
2023-05-16T03:43:38.039Z,0.59
2023-05-16T03:44:38.025Z,0.59
2023-05-16T03:45:38.153Z,0.57
2023-05-16T03:46:38.013Z,0.58
2023-05-16T03:47:38.153Z,0.56
2023-05-16T03:48:38.023Z,0.56
2023-05-16T03:49:38.034Z,0.60
2023-05-16T03:50:40.292Z,0.62
2023-05-16T03:51:38.154Z,0.63
2023-05-16T03:52:38.044Z,0.64
2023-05-16T03:53:38.106Z,0.65
2023-05-16T03:54:38.027Z,0.69
2023-05-16T03:55:38.072Z,0.75
2023-05-16T03:56:38.054Z,0.75
2023-05-16T03:57:37.979Z,0.72
2023-05-16T03:58:38.037Z,0.79
2023-05-16T03:59:37.993Z,0.77
2023-05-16T04:00:38.582Z,0.81
2023-05-16T04:01:38.029Z,0.82
2023-05-16T04:02:38.164Z,0.85
2023-05-16T04:03:37.999Z,0.83
2023-05-16T04:04:38.007Z,0.84
2023-05-16T04:05:37.973Z,0.85
2023-05-16T04:06:37.929Z,0.86
2023-05-16T04:07:37.931Z,0.85
2023-05-16T04:08:37.945Z,0.88
2023-05-16T04:09:37.978Z,0.86
2023-05-16T04:10:37.923Z,0.85
2023-05-16T04:11:37.949Z,0.85
2023-05-16T04:12:37.920Z,0.82
2023-05-16T04:13:37.898Z,0.83
2023-05-16T04:14:38.078Z,0.87
2023-05-16T04:15:37.881Z,0.90
2023-05-16T04:16:38.004Z,0.98
2023-05-16T04:17:37.944Z,0.97
2023-05-16T04:18:37.934Z,1.02
2023-05-16T04:19:37.879Z,1.01
2023-05-16T04:20:37.928Z,1.00
2023-05-16T04:21:37.895Z,1.04
2023-05-16T04:22:37.897Z,1.09
2023-05-16T04:23:37.859Z,1.13
2023-05-16T04:24:37.921Z,1.11
2023-05-16T04:25:37.826Z,1.09
2023-05-16T04:26:37.844Z,1.01
2023-05-16T04:27:37.843Z,1.06
2023-05-16T04:29:57.399Z,0.50
2023-05-16T04:32:16.968Z,0.50
2023-05-16T04:34:39.826Z,0.50
2023-05-16T04:37:30.535Z,0.50
2023-05-16T04:42:09.671Z,0.50
2023-05-16T04:43:09.960Z,0.50
2023-05-16T04:46:13.510Z,0.50
2023-05-16T04:51:55.056Z,0.50
2023-05-16T04:52:56.502Z,0.50
2023-05-16T04:53:54.831Z,0.50
2023-05-16T04:56:14.385Z,0.50
2023-05-16T04:57:14.399Z,0.50
2023-05-16T04:58:14.393Z,0.50
2023-05-16T05:03:04.740Z,0.50
2023-05-16T05:04:04.612Z,0.50
2023-05-16T05:07:23.319Z,0.50
2023-05-16T05:09:30.061Z,0.50
2023-05-16T05:10:29.257Z,0.50
2023-05-16T05:11:29.258Z,0.50
2023-05-16T05:12:29.392Z,0.50
2023-05-16T05:13:29.398Z,0.50
2023-05-16T05:14:29.280Z,0.54
2023-05-16T05:15:29.469Z,0.53
2023-05-16T05:16:31.953Z,0.51
2023-05-16T05:17:29.268Z,0.50
2023-05-16T05:18:29.187Z,0.54
2023-05-16T05:19:29.282Z,0.53
2023-05-16T05:20:29.162Z,0.50
2023-05-16T05:21:29.185Z,0.50
2023-05-16T05:22:29.251Z,0.50
2023-05-16T05:23:29.147Z,0.50
2023-05-16T05:24:29.149Z,0.54
2023-05-16T05:25:29.330Z,0.53
2023-05-16T05:26:29.129Z,0.54
2023-05-16T05:27:29.115Z,0.54
2023-05-16T05:28:29.153Z,0.52
2023-05-16T05:29:29.132Z,0.54
2023-05-16T05:30:29.134Z,0.54
2023-05-16T05:31:29.127Z,0.53
2023-05-16T05:32:29.120Z,0.51
2023-05-16T05:33:29.121Z,0.52
2023-05-16T05:34:29.102Z,0.51
2023-05-16T05:35:29.419Z,0.50
2023-05-16T05:36:29.124Z,0.51
2023-05-16T05:37:29.932Z,0.51
2023-05-16T05:38:29.081Z,0.53
2023-05-16T05:39:29.091Z,0.52
2023-05-16T05:40:29.019Z,0.51
2023-05-16T05:41:29.052Z,0.52
2023-05-16T05:42:29.216Z,0.55
2023-05-16T05:43:28.970Z,0.59
2023-05-16T05:44:29.053Z,0.58
2023-05-16T05:45:30.161Z,0.55
2023-05-16T05:46:29.074Z,0.61
2023-05-16T05:47:29.006Z,0.63
2023-05-16T05:48:29.034Z,0.62
2023-05-16T05:50:49.671Z,0.50
2023-05-16T06:02:03.370Z,0.50
2023-05-16T06:04:51.021Z,0.50
2023-05-16T06:05:50.738Z,0.50
2023-05-16T06:08:45.985Z,0.50
2023-05-16T06:09:45.912Z,0.50
2023-05-16T06:10:46.029Z,0.50
2023-05-16T06:11:46.889Z,0.50
2023-05-16T06:14:54.216Z,0.50
2023-05-16T06:15:53.725Z,0.50
2023-05-16T06:22:10.586Z,0.50
2023-05-16T06:25:26.957Z,0.50
2023-05-16T06:26:26.141Z,0.50
2023-05-16T06:27:26.087Z,0.50
2023-05-16T06:33:08.309Z,0.50
2023-05-16T06:39:17.812Z,0.50
2023-05-16T06:41:37.466Z,0.50
2023-05-16T06:42:31.375Z,0.50
2023-05-16T06:43:31.355Z,0.50
2023-05-16T06:47:41.430Z,0.50
2023-05-16T06:48:40.135Z,0.50
2023-05-16T06:52:20.341Z,0.50
2023-05-16T06:55:37.538Z,0.50
2023-05-16T06:56:37.813Z,0.50
2023-05-16T06:57:37.208Z,0.50
2023-05-16T06:58:37.227Z,0.50
2023-05-16T07:02:54.436Z,0.50
2023-05-16T07:03:49.852Z,0.50
2023-05-16T07:04:49.852Z,0.50
2023-05-16T07:08:14.888Z,0.50
2023-05-16T07:10:34.173Z,0.50
2023-05-16T07:11:34.072Z,0.50
2023-05-16T07:19:18.855Z,0.50
2023-05-16T07:20:19.076Z,0.50
2023-05-16T07:29:14.692Z,0.50
2023-05-16T07:35:47.242Z,0.50
2023-05-16T07:36:47.232Z,0.50
2023-05-16T07:37:46.621Z,0.50
2023-05-16T07:38:47.042Z,0.50
2023-05-16T07:39:46.418Z,0.50
2023-05-16T07:51:58.262Z,0.50
2023-05-16T07:54:35.500Z,0.50
2023-05-16T08:10:45.531Z,0.50
2023-05-16T08:11:45.165Z,0.50
2023-05-16T08:12:45.118Z,0.50
2023-05-16T08:16:17.543Z,0.50
2023-05-16T08:19:09.378Z,0.50
2023-05-16T08:20:04.966Z,0.50
2023-05-16T08:21:03.389Z,0.50
2023-05-16T08:22:08.323Z,0.50
2023-05-16T08:26:24.567Z,0.50
2023-05-16T08:27:24.532Z,0.50
2023-05-16T08:28:24.560Z,0.50
2023-05-16T08:29:24.600Z,0.50
2023-05-16T08:30:27.329Z,0.50
2023-05-16T08:31:49.270Z,0.50
2023-05-16T08:32:25.557Z,0.50
2023-05-16T08:33:24.470Z,0.50
2023-05-16T08:34:24.496Z,0.50
2023-05-16T08:40:10.268Z,0.50
2023-05-16T08:41:09.938Z,0.50
2023-05-16T08:42:09.977Z,0.50
2023-05-16T08:43:09.980Z,0.50
2023-05-16T08:44:13.587Z,0.50
2023-05-16T08:45:10.096Z,0.50
2023-05-16T08:46:10.146Z,0.50
2023-05-16T08:47:10.086Z,0.50
2023-05-16T08:48:23.064Z,0.50
2023-05-16T08:49:10.884Z,0.50
2023-05-16T08:50:09.867Z,0.50
2023-05-16T08:51:09.926Z,0.50
2023-05-16T08:52:09.908Z,0.50
2023-05-16T08:53:09.864Z,0.50
2023-05-16T08:54:09.950Z,0.52
2023-05-16T08:55:11.650Z,0.44
2023-05-16T08:56:09.893Z,0.54
2023-05-16T08:57:09.867Z,0.52
2023-05-16T08:58:21.587Z,0.49
2023-05-16T08:59:10.845Z,0.40
2023-05-16T09:00:09.900Z,0.36
2023-05-16T09:04:14.770Z,0.50
2023-05-16T09:05:11.617Z,0.50
2023-05-16T09:06:11.484Z,0.50
2023-05-16T09:07:11.500Z,0.50
2023-05-16T09:14:09.184Z,0.50
2023-05-16T09:21:07.351Z,0.50
2023-05-16T09:22:08.180Z,0.50
2023-05-16T09:23:07.329Z,0.50
2023-05-16T09:24:08.388Z,0.50
2023-05-16T09:25:21.746Z,0.50
2023-05-16T09:26:08.202Z,0.50
2023-05-16T09:27:06.991Z,0.50
2023-05-16T09:28:07.000Z,0.50
2023-05-16T09:39:42.518Z,0.50
2023-05-16T09:40:43.166Z,0.50
2023-05-16T09:44:58.673Z,0.50
2023-05-16T09:45:52.803Z,0.50
2023-05-16T09:46:52.039Z,0.50
2023-05-16T09:47:52.191Z,0.50
2023-05-16T09:48:52.833Z,0.50
2023-05-16T09:49:52.027Z,0.50
2023-05-16T09:50:51.966Z,0.52
2023-05-16T09:56:13.457Z,0.50
2023-05-16T09:57:06.308Z,0.50
2023-05-16T10:00:47.592Z,0.50
2023-05-16T10:01:41.498Z,0.50
2023-05-16T10:04:42.011Z,0.50
2023-05-16T10:13:12.115Z,0.50
2023-05-16T10:19:06.091Z,0.50
2023-05-16T10:21:15.591Z,0.50
2023-05-16T10:22:15.510Z,0.50
2023-05-16T10:26:50.308Z,0.50
2023-05-16T10:27:55.400Z,0.50
2023-05-16T10:33:42.223Z,0.50
2023-05-16T10:34:41.966Z,0.50
2023-05-16T10:35:42.021Z,0.50
2023-05-16T10:36:42.121Z,0.50
2023-05-16T10:46:47.332Z,0.50
2023-05-16T10:47:47.152Z,0.50
2023-05-16T10:48:45.639Z,0.50
2023-05-16T10:49:44.138Z,0.50
2023-05-16T10:50:44.121Z,0.50
2023-05-16T10:51:45.621Z,0.50
2023-05-16T10:52:45.561Z,0.50
2023-05-16T10:53:44.049Z,0.50
2023-05-16T10:54:44.278Z,0.53
2023-05-16T10:55:44.217Z,0.50
2023-05-16T10:56:44.168Z,0.35
2023-05-16T10:57:45.696Z,0.34
2023-05-16T10:58:44.076Z,0.34
2023-05-16T10:59:44.089Z,0.34
2023-05-16T11:00:44.005Z,0.34
2023-05-16T11:01:44.312Z,0.34
2023-05-16T11:02:44.164Z,0.34
2023-05-16T11:03:44.194Z,0.35
2023-05-16T11:04:44.355Z,0.43
2023-05-16T11:05:44.015Z,0.59
2023-05-16T11:06:44.348Z,0.65
2023-05-16T11:07:44.135Z,0.75
2023-05-16T11:08:49.749Z,0.84
2023-05-16T11:09:45.072Z,0.85
2023-05-16T11:10:44.246Z,0.86
2023-05-16T11:11:47.932Z,0.62
2023-05-16T11:12:44.082Z,0.40
2023-05-16T11:13:44.135Z,0.41
2023-05-16T11:14:44.055Z,0.46
2023-05-16T11:15:45.580Z,0.41
2023-05-16T11:16:44.147Z,0.34
2023-05-16T11:17:46.171Z,0.40
2023-05-16T11:18:44.250Z,0.47
2023-05-16T11:19:45.648Z,0.66
2023-05-16T11:20:44.238Z,1.00
2023-05-16T11:21:44.333Z,1.33
2023-05-16T11:22:45.780Z,1.30
2023-05-16T11:23:45.539Z,1.43
2023-05-16T11:24:44.375Z,0.95
2023-05-16T11:25:44.369Z,0.78
2023-05-16T11:26:44.297Z,0.83
2023-05-16T11:27:46.201Z,0.70
2023-05-16T11:28:45.276Z,0.49
2023-05-16T11:29:44.296Z,0.56
2023-05-16T11:30:44.394Z,0.75
2023-05-16T11:31:44.681Z,0.81
2023-05-16T11:32:44.579Z,0.54
2023-05-16T11:33:46.570Z,0.51
2023-05-16T11:34:44.375Z,0.50
2023-05-16T11:35:44.495Z,0.43
2023-05-16T11:36:44.297Z,0.53
2023-05-16T11:37:44.456Z,0.50
2023-05-16T11:38:46.215Z,0.38
2023-05-16T11:39:44.475Z,0.44
2023-05-16T11:40:47.113Z,0.46
2023-05-16T11:41:44.580Z,0.39
2023-05-16T11:42:44.489Z,0.34
2023-05-16T11:43:45.184Z,0.34
2023-05-16T11:44:44.274Z,0.37
2023-05-16T11:45:44.425Z,0.36
2023-05-16T11:46:45.243Z,0.49
2023-05-16T11:47:45.247Z,0.65
2023-05-16T11:48:44.642Z,0.67
2023-05-16T11:49:44.299Z,0.76
2023-05-16T11:50:44.436Z,1.01
2023-05-16T11:51:44.292Z,1.64
2023-05-16T11:52:44.362Z,2.28
2023-05-16T11:53:44.360Z,2.11
2023-05-16T11:54:45.810Z,1.35
2023-05-16T11:55:49.047Z,0.67
2023-05-16T11:56:45.365Z,0.43
2023-05-16T11:57:45.375Z,0.37
2023-05-16T11:58:49.586Z,0.51
2023-05-16T11:59:45.211Z,0.67
2023-05-16T12:00:44.183Z,0.70
2023-05-16T12:01:46.554Z,0.87
2023-05-16T12:02:44.262Z,1.29
2023-05-16T12:03:44.443Z,1.81
2023-05-16T12:04:45.203Z,1.64
2023-05-16T12:05:44.501Z,1.53
2023-05-16T12:06:45.580Z,1.54
2023-05-16T12:07:44.677Z,1.57
2023-05-16T12:08:44.502Z,1.98
2023-05-16T12:09:44.460Z,2.57
2023-05-16T12:10:44.588Z,3.04
2023-05-16T12:11:44.506Z,1.56
2023-05-16T12:12:44.495Z,1.75
2023-05-16T12:13:44.567Z,2.10
2023-05-16T12:14:52.761Z,2.30
2023-05-16T12:15:45.612Z,2.28
2023-05-16T12:16:44.692Z,2.19
2023-05-16T12:17:44.710Z,2.25
2023-05-16T12:18:44.805Z,3.04
2023-05-16T12:19:44.814Z,2.94
2023-05-16T12:20:44.860Z,4.45
2023-05-16T12:21:45.935Z,5.48
2023-05-16T12:22:44.952Z,6.07
2023-05-16T12:23:44.963Z,8.42
2023-05-16T12:24:44.974Z,7.28
2023-05-16T12:25:45.099Z,9.18
2023-05-16T12:26:45.020Z,8.77
2023-05-16T12:27:45.827Z,11.04
2023-05-16T12:28:45.006Z,14.15
2023-05-16T12:29:45.072Z,14.51
2023-05-16T12:30:45.246Z,8.73
2023-05-16T12:31:45.228Z,7.09
2023-05-16T12:32:45.433Z,5.89
2023-05-16T12:33:45.184Z,6.43
2023-05-16T12:34:45.217Z,8.00
2023-05-16T12:35:45.154Z,5.35
2023-05-16T12:36:45.305Z,3.51
2023-05-16T12:37:45.263Z,3.29
2023-05-16T12:38:46.833Z,4.34
2023-05-16T12:39:45.414Z,3.99
2023-05-16T12:40:46.658Z,4.05
2023-05-16T12:41:45.380Z,4.31
2023-05-16T12:42:45.397Z,3.94
2023-05-16T12:43:45.542Z,3.98
2023-05-16T12:44:46.164Z,2.23
2023-05-16T12:45:45.611Z,1.94
2023-05-16T12:46:45.833Z,2.22
2023-05-16T12:47:45.659Z,2.91
2023-05-16T12:48:45.630Z,3.39
2023-05-16T12:49:45.611Z,3.44
2023-05-16T12:50:45.677Z,4.86
2023-05-16T12:51:47.073Z,3.49
2023-05-16T12:52:45.763Z,1.84
2023-05-16T12:53:54.377Z,1.76
2023-05-16T12:54:47.716Z,1.30
2023-05-16T12:55:45.850Z,1.11
2023-05-16T12:56:45.964Z,0.95
2023-05-16T12:57:45.954Z,0.67
2023-05-16T12:58:45.881Z,0.82
2023-05-16T12:59:45.801Z,0.98
2023-05-16T13:00:45.814Z,1.19
2023-05-16T13:01:45.936Z,1.48
2023-05-16T13:02:48.232Z,1.86
2023-05-16T13:03:46.752Z,2.14
2023-05-16T13:04:45.769Z,2.93
2023-05-16T13:05:47.101Z,2.89
2023-05-16T13:06:57.342Z,1.71
2023-05-16T13:07:46.781Z,1.71
2023-05-16T13:08:45.733Z,1.75
2023-05-16T13:09:45.773Z,1.91
2023-05-16T13:10:46.612Z,2.58
2023-05-16T13:11:45.695Z,2.25
2023-05-16T13:12:46.002Z,2.79
2023-05-16T13:13:45.714Z,2.74
2023-05-16T13:14:45.785Z,2.33
2023-05-16T13:15:46.527Z,2.30
2023-05-16T13:16:45.887Z,2.29
2023-05-16T13:17:47.768Z,2.80
2023-05-16T13:18:45.904Z,3.16
2023-05-16T13:19:47.459Z,2.73
2023-05-16T13:20:45.722Z,2.43
2023-05-16T13:21:45.753Z,2.87
2023-05-16T13:22:49.151Z,3.27
2023-05-16T13:23:49.120Z,3.29
2023-05-16T13:24:45.684Z,2.57
2023-05-16T13:25:49.494Z,2.44
2023-05-16T13:26:47.108Z,2.21
2023-05-16T13:27:45.765Z,2.47
2023-05-16T13:28:46.060Z,3.46
2023-05-16T13:29:45.675Z,3.10
2023-05-16T13:30:45.667Z,2.76
2023-05-16T13:31:49.222Z,2.74
2023-05-16T13:32:46.928Z,2.76
2023-05-16T13:33:45.662Z,2.78
2023-05-16T13:34:48.174Z,2.83
2023-05-16T13:35:45.732Z,3.02
2023-05-16T13:36:53.811Z,2.69
2023-05-16T13:37:49.126Z,2.75
2023-05-16T13:38:45.597Z,2.74
2023-05-16T13:39:45.600Z,2.56
2023-05-16T13:40:45.686Z,2.91
2023-05-16T13:41:47.394Z,3.39
2023-05-16T13:42:45.511Z,2.78
2023-05-16T13:43:45.592Z,2.96
2023-05-16T13:44:50.648Z,3.72
2023-05-16T13:45:46.636Z,2.83
2023-05-16T13:46:45.497Z,3.07
2023-05-16T13:47:48.077Z,3.40
2023-05-16T13:48:45.646Z,2.99
2023-05-16T13:49:47.204Z,3.02
2023-05-16T13:50:47.681Z,3.58
2023-05-16T13:51:45.611Z,7.82
2023-05-16T13:52:45.570Z,7.27
2023-05-16T13:53:45.461Z,5.66
2023-05-16T13:54:45.532Z,4.41
2023-05-16T13:55:47.123Z,3.61
2023-05-16T13:56:49.095Z,3.12
2023-05-16T13:57:47.102Z,3.09
2023-05-16T13:59:00.798Z,6.04
2023-05-16T14:00:11.553Z,6.17
2023-05-16T14:00:47.688Z,5.36
2023-05-16T14:01:46.290Z,4.42
2023-05-16T14:02:45.766Z,5.32
2023-05-16T14:03:48.827Z,6.67
2023-05-16T14:04:46.722Z,3.83
2023-05-16T14:05:45.498Z,3.94
2023-05-16T14:06:45.493Z,2.18
2023-05-16T14:07:46.908Z,2.97
2023-05-16T14:08:46.696Z,2.58
2023-05-16T14:09:45.499Z,2.23
2023-05-16T14:10:45.457Z,2.05
2023-05-16T14:11:46.099Z,2.44
2023-05-16T14:12:45.490Z,3.56
2023-05-16T14:13:45.607Z,4.10
2023-05-16T14:14:46.240Z,3.38
2023-05-16T14:15:45.550Z,4.19
2023-05-16T14:16:45.931Z,4.78
2023-05-16T14:17:45.771Z,4.42
2023-05-16T14:18:48.704Z,4.19
2023-05-16T14:19:45.581Z,5.11
2023-05-16T14:20:45.612Z,6.03
2023-05-16T14:21:45.544Z,4.75
2023-05-16T14:22:47.141Z,3.81
2023-05-16T14:23:46.185Z,2.67
2023-05-16T14:24:45.795Z,3.96
2023-05-16T14:25:46.667Z,4.75
2023-05-16T14:26:46.686Z,5.23
2023-05-16T14:27:45.502Z,6.47
2023-05-16T14:28:45.581Z,1.28
2023-05-16T14:29:46.612Z,1.09
2023-05-16T14:30:47.928Z,1.07
2023-05-16T14:31:47.194Z,0.76
2023-05-16T14:32:49.313Z,0.65
2023-05-16T14:33:45.790Z,0.74
2023-05-16T14:34:49.129Z,0.67
2023-05-16T14:35:45.739Z,0.52
2023-05-16T14:36:45.719Z,0.34
2023-05-16T14:37:45.803Z,0.34
2023-05-16T14:38:45.746Z,0.34
2023-05-16T14:39:47.163Z,0.34
2023-05-16T14:40:45.743Z,0.36
2023-05-16T14:41:45.653Z,0.63
2023-05-16T14:42:45.668Z,0.88
2023-05-16T14:43:45.710Z,0.87
2023-05-16T14:44:45.710Z,0.86
2023-05-16T14:45:45.786Z,0.52
2023-05-16T14:46:45.917Z,0.56
2023-05-16T14:47:45.659Z,0.88
2023-05-16T14:48:45.745Z,1.20
2023-05-16T14:49:45.692Z,1.75
2023-05-16T14:50:45.711Z,1.59
2023-05-16T14:51:45.658Z,1.35
2023-05-16T14:52:45.674Z,1.41
2023-05-16T14:53:46.946Z,1.43
2023-05-16T14:54:45.579Z,1.37
2023-05-16T14:55:46.120Z,1.95
2023-05-16T14:56:45.600Z,1.31
2023-05-16T14:57:45.896Z,1.23
2023-05-16T14:58:45.574Z,1.07
2023-05-16T14:59:45.610Z,1.86
2023-05-16T15:00:45.515Z,1.93
2023-05-16T15:01:45.545Z,1.73
2023-05-16T15:02:46.678Z,1.75
2023-05-16T15:03:54.501Z,1.84
2023-05-16T15:04:46.665Z,1.75
2023-05-16T15:05:45.505Z,1.75
2023-05-16T15:06:45.458Z,1.24
2023-05-16T15:07:45.553Z,1.08
2023-05-16T15:08:46.180Z,1.09
2023-05-16T15:09:51.606Z,1.28
2023-05-16T15:10:52.600Z,1.29
2023-05-16T15:11:47.235Z,1.30
2023-05-16T15:12:45.436Z,1.30
2023-05-16T15:13:45.399Z,1.43
2023-05-16T15:14:46.413Z,1.91
2023-05-16T15:17:08.149Z,0.50
2023-05-16T15:18:05.854Z,0.50
2023-05-16T15:19:05.312Z,0.50
2023-05-16T15:20:05.440Z,0.50
2023-05-16T15:21:05.380Z,0.50
2023-05-16T15:22:05.142Z,0.50
2023-05-16T15:23:05.092Z,0.52
2023-05-16T15:24:05.173Z,0.50
2023-05-16T15:26:24.786Z,0.50
2023-05-16T15:27:24.747Z,0.50
2023-05-16T15:28:25.182Z,0.50
2023-05-16T15:29:24.596Z,0.50
2023-05-16T15:30:25.322Z,0.50
2023-05-16T15:31:24.659Z,0.71
2023-05-16T15:33:45.425Z,0.50
2023-05-16T15:34:44.110Z,0.50
2023-05-16T15:35:44.311Z,0.50
2023-05-16T15:36:44.220Z,0.50
2023-05-16T15:42:01.026Z,0.50
2023-05-16T15:42:31.579Z,0.50
2023-05-16T15:43:30.524Z,0.50
2023-05-16T15:44:30.529Z,0.50
2023-05-16T15:45:31.783Z,0.50
2023-05-16T15:48:15.607Z,0.50
2023-05-16T15:51:03.939Z,0.50
2023-05-16T15:52:03.685Z,0.50
2023-05-16T15:53:03.797Z,0.50
2023-05-16T15:54:03.758Z,0.50
2023-05-16T15:55:03.680Z,0.50
2023-05-16T15:56:03.693Z,0.50
2023-05-16T15:57:03.737Z,0.47
2023-05-16T15:58:03.700Z,0.46
2023-05-16T15:59:04.661Z,0.51
2023-05-16T16:00:03.916Z,0.60
2023-05-16T16:01:03.986Z,0.56
2023-05-16T16:02:03.633Z,0.52
2023-05-16T16:03:03.698Z,0.51
2023-05-16T16:04:04.533Z,0.51
2023-05-16T16:05:03.665Z,0.56
2023-05-16T16:06:03.613Z,0.59
2023-05-16T16:07:03.709Z,0.52
2023-05-16T16:08:03.597Z,0.46
2023-05-16T16:09:05.084Z,0.56
2023-05-16T16:10:03.586Z,0.51
2023-05-16T16:11:03.564Z,0.42
2023-05-16T16:12:03.570Z,0.37
2023-05-16T16:13:03.570Z,0.48
2023-05-16T16:14:03.512Z,0.54
2023-05-16T16:15:03.612Z,0.63
2023-05-16T16:16:03.560Z,0.72
2023-05-16T16:17:04.467Z,0.70
2023-05-16T16:18:03.565Z,0.76
2023-05-16T16:22:25.044Z,0.50
2023-05-16T16:23:38.585Z,0.50
2023-05-16T16:26:13.864Z,0.50
2023-05-16T16:27:13.709Z,0.50
2023-05-16T16:31:13.270Z,0.50
2023-05-16T16:35:16.370Z,0.50
2023-05-16T16:38:16.276Z,0.50
2023-05-16T16:42:02.812Z,0.50
2023-05-16T16:44:16.069Z,0.50
2023-05-16T16:45:15.713Z,0.50
2023-05-16T16:47:36.452Z,0.50
2023-05-16T16:50:25.566Z,0.50
2023-05-16T16:54:00.981Z,0.50
2023-05-16T16:55:00.955Z,0.50
2023-05-16T16:56:01.138Z,0.50
2023-05-16T16:57:00.934Z,0.50
2023-05-16T16:58:01.466Z,0.50
2023-05-16T16:59:00.773Z,0.52
2023-05-16T17:00:00.752Z,0.49
2023-05-16T17:05:08.332Z,0.50
2023-05-16T17:07:48.282Z,0.50
2023-05-16T17:08:48.101Z,0.50
2023-05-16T17:11:44.046Z,0.50
2023-05-16T17:14:42.692Z,0.50
2023-05-16T17:15:41.955Z,0.50
2023-05-16T17:16:42.092Z,0.50
2023-05-16T17:19:09.919Z,0.50
2023-05-16T17:21:28.600Z,0.50
2023-05-16T17:23:55.588Z,0.50
2023-05-16T17:28:43.240Z,0.50
2023-05-16T17:29:29.399Z,0.50
2023-05-16T17:31:49.176Z,0.50
2023-05-16T17:34:34.351Z,0.50
2023-05-16T17:35:34.350Z,0.50
2023-05-16T17:36:34.039Z,0.50
2023-05-16T17:37:46.777Z,0.50
2023-05-16T17:38:34.095Z,0.50
2023-05-16T17:39:34.146Z,0.50
2023-05-16T17:40:34.065Z,0.50
2023-05-16T17:41:34.107Z,0.50
2023-05-16T17:42:34.324Z,0.50
2023-05-16T17:50:05.503Z,0.50
2023-05-16T18:01:11.792Z,0.50
2023-05-16T18:03:32.777Z,0.50
2023-05-16T18:06:07.145Z,0.50
2023-05-16T18:07:05.945Z,0.50
2023-05-16T18:10:52.174Z,0.50
2023-05-16T18:13:05.452Z,0.50
2023-05-16T18:15:37.184Z,0.50
2023-05-16T18:21:39.257Z,0.50
2023-05-16T18:24:00.915Z,0.50
2023-05-16T18:25:00.088Z,0.50
2023-05-16T18:27:18.824Z,0.50
2023-05-16T18:28:18.699Z,0.50